Time;durP1;ratioP1;P1;durP2;ratioP2;P2;SDS_P1;SDS_P2;PMS_P1;PMS_P2;Temp;Humidity;BMP_temperature;BMP_pressure;BME280_temperature;BME280_humidity;BME280_pressure;Samples;Min_cycle;Max_cycle;Signal;HPM_P1;HPM_P2
2022/02/02 00:01:56;;;;;;;9.13;2.33;;;;;;;5.37;83.45;100066.50;5073500;28;20209;-77
2022/02/02 00:04:27;;;;;;;18.13;3.73;;;;;;;5.48;82.94;100102.72;5074952;28;20312;-76
2022/02/02 00:07:03;;;;;;;10.60;2.93;;;;;;;5.46;82.39;100118.25;5072840;28;20651;-77
2022/02/02 00:09:29;;;;;;;10.63;3.03;;;;;;;5.35;82.84;100114.84;5072770;28;20194;-76
2022/02/02 00:12:17;;;;;;;13.23;3.47;;;;;;;5.39;82.59;100095.84;5073224;28;20204;-76
2022/02/02 00:14:55;;;;;;;13.33;3.27;;;;;;;5.37;82.49;100101.03;5070378;28;20229;-77
2022/02/02 00:17:35;;;;;;;15.70;3.50;;;;;;;5.35;82.39;100123.47;5070478;28;20205;-76
2022/02/02 00:20:14;;;;;;;14.57;3.57;;;;;;;5.32;81.34;100123.47;5072423;28;20190;-76
2022/02/02 00:22:42;;;;;;;9.83;3.87;;;;;;;5.30;81.46;100132.13;5071368;28;20234;-76
2022/02/02 00:25:14;;;;;;;12.80;3.27;;;;;;;5.35;81.35;100138.13;5072717;28;20243;-76
2022/02/02 00:27:43;;;;;;;10.07;3.67;;;;;;;5.30;81.62;100138.16;5073257;28;20285;-77
2022/02/02 00:30:15;;;;;;;14.03;3.00;;;;;;;5.28;81.28;100158.00;5071944;28;20572;-76
2022/02/02 00:32:58;;;;;;;12.27;3.87;;;;;;;5.32;80.81;100164.88;5072536;28;20640;-75
2022/02/02 00:35:29;;;;;;;13.70;3.53;;;;;;;5.32;80.90;100184.72;5064421;28;20222;-75
2022/02/02 00:37:56;;;;;;;16.83;2.83;;;;;;;5.23;81.82;100174.38;5073023;28;20185;-75
2022/02/02 00:40:22;;;;;;;13.00;3.23;;;;;;;5.25;81.17;100170.06;5072316;28;20210;-74
2022/02/02 00:42:50;;;;;;;18.67;4.47;;;;;;;5.21;81.82;100163.19;5072290;28;20221;-75
2022/02/02 00:45:17;;;;;;;13.67;4.03;;;;;;;5.25;80.91;100165.78;5072343;28;20214;-75
2022/02/02 00:47:48;;;;;;;14.17;2.73;;;;;;;5.23;81.57;100176.97;5072460;28;20212;-76
2022/02/02 00:50:15;;;;;;;18.90;3.77;;;;;;;5.29;81.20;100164.03;5071799;28;20210;-76
2022/02/02 00:52:42;;;;;;;23.13;4.07;;;;;;;5.32;81.91;100166.63;5072090;28;20693;-75
2022/02/02 00:55:09;;;;;;;16.60;3.70;;;;;;;5.35;81.53;100166.59;5072397;28;20229;-75
2022/02/02 00:57:35;;;;;;;15.27;3.73;;;;;;;5.35;81.46;100176.94;5071959;28;20211;-76
2022/02/02 01:00:02;;;;;;;11.23;2.97;;;;;;;5.28;82.44;100160.59;5071653;28;20209;-76
2022/02/02 01:02:28;;;;;;;16.80;3.10;;;;;;;5.22;82.78;100142.47;5071970;28;20251;-75
2022/02/02 01:04:56;;;;;;;21.43;4.50;;;;;;;5.26;82.72;100141.59;5073736;28;20630;-76
2022/02/02 01:07:32;;;;;;;12.90;2.63;;;;;;;5.33;82.34;100142.44;5071018;28;20209;-75
2022/02/02 01:10:07;;;;;;;22.17;4.20;;;;;;;5.36;82.95;100135.53;5071474;28;20206;-76
2022/02/02 01:12:48;;;;;;;11.00;3.53;;;;;;;5.29;83.07;100120.91;5071612;28;20212;-76
2022/02/02 01:16:12;;;;;;;18.27;4.27;;;;;;;5.39;82.50;100145.00;5072079;28;20252;-75
2022/02/02 01:18:28;;;;;;;12.37;4.13;;;;;;;5.40;82.10;100145.91;5071342;28;20546;-76
2022/02/02 01:21:00;;;;;;;14.13;3.80;;;;;;;5.40;82.93;100144.16;5071112;28;20264;-75
2022/02/02 01:28:55;;;;;;;16.37;4.20;;;;;;;5.45;82.25;100178.69;5071710;28;20283;-75
2022/02/02 01:31:22;;;;;;;10.30;3.13;;;;;;;5.45;81.44;100190.72;5071560;28;20209;-76
2022/02/02 01:33:48;;;;;;;12.20;2.93;;;;;;;5.44;81.06;100182.13;5073093;28;20717;-76
2022/02/02 01:36:17;;;;;;;19.47;4.27;;;;;;;5.42;81.92;100170.91;5071291;28;20194;-76
2022/02/02 01:38:46;;;;;;;11.03;3.60;;;;;;;5.44;80.87;100189.88;5071584;28;20212;-75
2022/02/02 01:41:19;;;;;;;11.73;2.93;;;;;;;5.38;82.10;100193.34;5071064;28;20202;-76
2022/02/02 01:43:53;;;;;;;14.33;2.67;;;;;;;5.41;81.64;100182.13;5071251;28;20635;-76
2022/02/02 01:46:21;;;;;;;16.00;3.57;;;;;;;5.43;80.66;100218.34;5071767;28;20217;-76
2022/02/02 01:48:55;;;;;;;16.33;3.43;;;;;;;5.42;81.26;100201.97;5071468;28;20297;-75
2022/02/02 01:51:50;;;;;;;14.57;3.13;;;;;;;5.37;81.52;100204.56;5071131;28;20207;-76
2022/02/02 01:54:32;;;;;;;10.40;3.13;;;;;;;5.25;84.37;100170.06;5071697;28;20230;-75
2022/02/02 01:57:02;;;;;;;16.53;2.83;;;;;;;5.16;85.15;100111.44;5071510;28;20207;-76
2022/02/02 01:59:38;;;;;;;12.70;3.87;;;;;;;5.04;86.62;100075.25;5071052;28;20259;-74
2022/02/02 02:02:06;;;;;;;13.23;2.77;;;;;;;5.00;86.09;100079.56;5071046;28;20206;-75
2022/02/02 02:04:32;;;;;;;9.70;2.43;;;;;;;4.90;88.33;100045.09;5073195;28;20232;-76
2022/02/02 02:07:00;;;;;;;13.87;3.57;;;;;;;4.83;89.55;100017.53;5071498;28;20252;-77
2022/02/02 02:09:29;;;;;;;10.57;1.97;;;;;;;4.74;90.33;99982.22;5070865;28;20690;-77
2022/02/02 02:11:57;;;;;;;7.90;2.40;;;;;;;4.75;90.88;99960.66;5071144;28;20209;-75
2022/02/02 02:17:04;;;;;;;12.20;2.77;;;;;;;4.76;91.98;99953.78;5070156;28;20570;-75
2022/02/02 02:19:30;;;;;;;8.50;2.70;;;;;;;4.67;92.35;99941.72;5074688;28;20209;-75
2022/02/02 02:21:57;;;;;;;12.67;2.17;;;;;;;4.42;93.36;99916.81;5075015;28;20214;-76
2022/02/02 02:24:24;;;;;;;10.17;3.10;;;;;;;4.25;94.56;99871.22;5074389;28;20278;-76
2022/02/02 02:26:51;;;;;;;14.73;2.93;;;;;;;4.35;94.70;99861.72;5075127;28;20207;-76
2022/02/02 02:29:34;;;;;;;10.73;2.33;;;;;;;4.38;93.80;99880.66;5074977;28;20210;-77
2022/02/02 02:32:15;;;;;;;15.73;3.43;;;;;;;4.42;91.81;99919.41;5074807;28;20211;-76
2022/02/02 02:35:00;;;;;;;11.43;2.23;;;;;;;4.47;90.03;99971.94;5076526;28;20581;-76
2022/02/02 02:55:43;;;;;;;10.57;2.40;;;;;;;4.39;88.45;100033.97;5073913;28;20205;-75
2022/02/02 02:56:51;;;;;;;9.53;2.93;;;;;;;4.45;85.96;100082.22;5074486;28;20192;-76
2022/02/02 02:59:31;;;;;;;8.73;1.90;;;;;;;4.50;86.23;100077.88;5074321;28;20216;-76
2022/02/02 03:32:25;;;;;;;17.23;3.70;;;;;;;4.87;83.15;100194.25;5073712;28;20256;-76
2022/02/02 03:35:07;;;;;;;10.33;2.57;;;;;;;4.91;82.55;100198.56;5075258;28;20793;-75
2022/02/02 03:51:29;;;;;;;14.73;3.17;;;;;;;5.06;80.70;100280.47;5073275;28;20266;-75
2022/02/02 03:54:20;;;;;;;8.87;2.27;;;;;;;4.97;82.48;100268.38;5073278;28;20286;-76
2022/02/02 03:57:18;;;;;;;13.73;3.10;;;;;;;4.88;84.70;100229.59;5073806;28;20218;-75
2022/02/02 03:59:58;;;;;;;12.93;2.30;;;;;;;4.65;86.81;100207.16;5072794;28;20250;-75
2022/02/02 04:05:30;;;;;;;5.67;1.70;;;;;;;4.56;85.97;100168.38;5041462;28;20236;-75
2022/02/02 04:08:09;;;;;;;8.27;1.70;;;;;;;4.52;86.14;100162.34;5068812;28;20214;-75
2022/02/02 04:10:35;;;;;;;7.23;2.57;;;;;;;4.41;87.28;100145.94;5072896;28;20213;-75
2022/02/02 04:13:11;;;;;;;10.90;2.57;;;;;;;4.33;87.58;100139.91;5073025;28;20231;-76
2022/02/02 04:38:02;;;;;;;7.43;1.63;;;;;;;4.36;86.40;100197.63;5072615;28;20205;-76
2022/02/02 04:51:54;;;;;;;7.37;2.00;;;;;;;3.97;93.31;100023.63;5071349;28;20224;-75
2022/02/02 04:54:28;;;;;;;10.43;2.50;;;;;;;3.98;93.21;100003.81;5072267;28;20273;-75
2022/02/02 04:59:46;;;;;;;12.60;2.70;;;;;;;4.07;91.90;100052.91;5071794;28;20266;-75
2022/02/02 05:08:00;;;;;;;7.47;3.13;;;;;;;4.25;88.81;100126.97;5072073;28;20212;-75
2022/02/02 05:10:34;;;;;;;13.20;2.73;;;;;;;4.27;89.04;100145.06;5071242;28;20295;-76
2022/02/02 05:16:02;;;;;;;12.70;3.37;;;;;;;4.15;88.43;100141.59;5071692;28;20247;-75
2022/02/02 05:19:05;;;;;;;19.53;3.27;;;;;;;4.21;88.36;100153.66;5071721;28;20613;-76
2022/02/02 05:41:20;;;;;;;10.73;2.70;;;;;;;4.19;84.89;100271.63;5052062;28;20260;-79
2022/02/02 05:49:25;;;;;;;15.87;3.40;;;;;;;4.22;85.13;100299.19;5052122;28;20589;-77
2022/02/02 05:51:53;;;;;;;21.60;4.60;;;;;;;4.26;84.83;100322.47;5051930;28;20209;-78
2022/02/02 05:54:20;;;;;;;18.73;4.27;;;;;;;4.21;84.45;100326.75;5052465;28;20226;-78
2022/02/02 05:56:49;;;;;;;20.57;4.07;;;;;;;4.26;84.62;100326.75;5051722;28;20206;-77
2022/02/02 05:59:19;;;;;;;12.43;3.10;;;;;;;4.29;84.02;100337.97;5052008;28;20212;-78
2022/02/02 06:01:50;;;;;;;12.97;4.10;;;;;;;4.34;83.64;100356.97;5051152;28;20255;-77
2022/02/02 06:04:21;;;;;;;21.23;4.20;;;;;;;4.43;82.74;100386.28;5055524;28;20233;-78
2022/02/02 06:06:49;;;;;;;13.87;3.23;;;;;;;4.49;82.52;100396.66;5051694;28;20570;-79
2022/02/02 06:09:15;;;;;;;15.67;3.57;;;;;;;4.53;82.85;100406.16;5052727;28;20668;-77
2022/02/02 06:11:43;;;;;;;13.53;3.60;;;;;;;4.49;83.61;100382.00;5055442;28;20209;-78
2022/02/02 06:14:12;;;;;;;13.20;3.27;;;;;;;4.54;83.13;100392.38;5057036;28;20228;-78
2022/02/02 06:16:41;;;;;;;13.77;3.00;;;;;;;4.54;83.82;100384.63;5054600;28;20205;-78
2022/02/02 06:19:07;;;;;;;12.60;4.17;;;;;;;4.51;83.85;100400.13;5051428;28;20211;-79
2022/02/02 06:21:35;;;;;;;15.87;3.43;;;;;;;4.55;83.32;100389.78;5051435;28;20203;-77
2022/02/02 06:24:08;;;;;;;20.23;3.73;;;;;;;4.53;83.16;100409.59;5050822;28;20231;-78
2022/02/02 06:26:35;;;;;;;16.23;3.80;;;;;;;4.56;83.49;100421.69;5051305;28;20222;-78
2022/02/02 06:29:04;;;;;;;12.33;3.93;;;;;;;4.54;83.82;100426.00;5051253;28;20211;-78
2022/02/02 06:31:35;;;;;;;11.40;2.83;;;;;;;4.49;83.79;100407.84;5051169;28;20202;-77
2022/02/02 06:34:02;;;;;;;11.17;3.23;;;;;;;4.49;83.73;100394.94;5054472;28;20241;-79
2022/02/02 06:36:30;;;;;;;14.83;3.50;;;;;;;4.53;82.71;100419.06;5051065;28;20202;-77
2022/02/02 06:38:58;;;;;;;14.83;2.67;;;;;;;4.53;82.47;100435.44;5050846;28;20719;-77
2022/02/02 06:41:26;;;;;;;12.27;2.43;;;;;;;4.51;82.62;100431.13;5051186;28;20199;-78
2022/02/02 06:43:54;;;;;;;14.00;3.47;;;;;;;4.52;82.32;100445.75;5050899;28;20229;-77
2022/02/02 06:46:21;;;;;;;11.27;3.33;;;;;;;4.53;82.51;100458.72;5051104;28;20213;-77
2022/02/02 06:48:49;;;;;;;16.17;3.00;;;;;;;4.55;82.45;100464.75;5050559;28;20228;-78
2022/02/02 06:51:24;;;;;;;11.30;2.77;;;;;;;4.53;83.45;100456.13;5050221;28;20210;-79
2022/02/02 06:53:59;;;;;;;15.90;3.30;;;;;;;4.54;83.70;100436.34;5051842;28;20225;-79
2022/02/02 06:56:40;;;;;;;16.20;3.13;;;;;;;4.49;84.21;100431.13;5051583;28;20209;-78
2022/02/02 06:59:21;;;;;;;21.80;4.63;;;;;;;4.49;84.03;100438.00;5052267;28;20194;-78
2022/02/02 07:02:00;;;;;;;18.20;3.53;;;;;;;4.47;84.34;100443.16;5051157;28;20212;-79
2022/02/02 07:04:56;;;;;;;9.33;3.13;;;;;;;4.48;83.93;100438.84;5056240;28;20222;-77
2022/02/02 07:07:37;;;;;;;9.93;2.70;;;;;;;4.50;83.77;100463.88;5054777;28;20202;-79
2022/02/02 07:10:14;;;;;;;14.33;2.97;;;;;;;4.57;83.45;100482.88;5054173;28;20289;-79
2022/02/02 07:12:57;;;;;;;13.00;3.13;;;;;;;4.51;83.56;100481.09;5055148;28;20198;-79
2022/02/02 07:15:30;;;;;;;17.80;2.70;;;;;;;4.54;83.18;100501.81;5054077;28;20218;-79
2022/02/02 07:18:14;;;;;;;15.83;3.93;;;;;;;4.63;82.72;100518.22;5052195;28;20212;-79
2022/02/02 07:20:50;;;;;;;10.43;3.00;;;;;;;4.57;83.10;100519.91;5052356;28;20205;-79
2022/02/02 07:26:18;;;;;;;13.90;3.20;;;;;;;4.57;83.05;100550.94;5046410;28;20197;-80
2022/02/02 07:28:56;;;;;;;14.97;3.30;;;;;;;4.58;82.89;100559.56;5054241;28;20294;-79
2022/02/02 07:31:36;;;;;;;14.63;3.87;;;;;;;4.57;82.08;100574.19;5054077;28;20439;-78
2022/02/02 07:34:11;;;;;;;13.90;2.93;;;;;;;4.67;81.70;100571.69;5054731;28;20232;-79
2022/02/02 07:36:43;;;;;;;15.17;3.13;;;;;;;4.69;82.14;100598.41;5052362;28;20247;-79
2022/02/02 07:39:12;;;;;;;15.37;5.10;;;;;;;4.64;81.73;100610.44;5054756;28;20223;-79
2022/02/02 07:41:46;;;;;;;20.40;3.43;;;;;;;4.58;81.92;100595.75;5053947;28;20214;-78
2022/02/02 07:44:18;;;;;;;11.53;2.37;;;;;;;4.52;82.21;100613.78;5048744;28;20272;-78
2022/02/02 07:46:46;;;;;;;14.13;3.67;;;;;;;4.57;81.67;100596.59;5053970;28;20194;-78
2022/02/02 07:49:16;;;;;;;14.10;3.40;;;;;;;4.58;82.24;100609.53;5050664;28;20204;-77
2022/02/02 07:51:47;;;;;;;17.80;2.87;;;;;;;4.48;82.70;100605.16;5053649;28;20199;-78
2022/02/02 07:54:18;;;;;;;13.53;3.23;;;;;;;4.49;82.64;100606.00;5050858;28;20245;-78
2022/02/02 07:56:46;;;;;;;13.93;3.00;;;;;;;4.47;82.81;100603.41;5053586;28;20276;-79
2022/02/02 07:59:19;;;;;;;16.83;3.10;;;;;;;4.30;83.74;100581.72;5051180;28;20684;-78
2022/02/02 08:01:47;;;;;;;11.97;2.47;;;;;;;4.33;83.67;100577.44;5052627;28;20644;-80
2022/02/02 08:04:15;;;;;;;14.03;4.10;;;;;;;4.27;84.60;100579.13;5055102;28;20809;-78
2022/02/02 08:06:44;;;;;;;17.63;3.13;;;;;;;4.24;84.28;100561.88;5053159;28;20216;-78
2022/02/02 08:09:22;;;;;;;9.10;3.20;;;;;;;4.17;84.60;100565.25;5051655;28;20668;-78
2022/02/02 08:11:51;;;;;;;12.33;3.17;;;;;;;4.22;84.21;100583.38;5053375;28;20723;-79
2022/02/02 08:14:17;;;;;;;18.87;3.67;;;;;;;4.21;84.59;100590.25;5053774;28;20211;-78
2022/02/02 08:16:43;;;;;;;11.90;3.33;;;;;;;4.27;84.44;100587.72;5053144;28;20212;-78
2022/02/02 08:19:10;;;;;;;13.63;2.50;;;;;;;4.40;83.82;100608.50;5052704;28;20240;-77
2022/02/02 08:21:36;;;;;;;9.40;3.27;;;;;;;4.38;83.98;100611.09;5052113;28;20197;-77
2022/02/02 08:24:03;;;;;;;21.47;4.00;;;;;;;4.45;83.78;100628.38;5052442;28;20218;-78
2022/02/02 08:26:32;;;;;;;12.23;2.93;;;;;;;4.52;83.68;100625.00;5052051;28;20197;-78
2022/02/02 08:28:58;;;;;;;20.93;3.77;;;;;;;4.43;83.98;100632.66;5052608;28;20201;-78
2022/02/02 08:31:27;;;;;;;17.33;3.73;;;;;;;4.44;84.03;100623.19;5052460;28;20225;-78
2022/02/02 08:33:57;;;;;;;17.30;3.43;;;;;;;4.49;83.29;100639.63;5053871;28;20228;-78
2022/02/02 08:36:23;;;;;;;12.63;3.07;;;;;;;4.55;82.10;100689.66;5052453;28;20201;-80
2022/02/02 08:38:59;;;;;;;18.47;3.30;;;;;;;4.52;81.46;100696.50;5053172;28;20204;-79
2022/02/02 08:41:30;;;;;;;14.20;2.93;;;;;;;4.57;81.74;100724.13;5056271;28;20289;-79
2022/02/02 08:44:02;;;;;;;15.63;4.13;;;;;;;4.63;81.03;100730.22;5051457;28;20229;-80
2022/02/02 08:46:33;;;;;;;15.13;2.97;;;;;;;4.69;81.03;100754.41;5053709;28;20202;-79
2022/02/02 08:49:01;;;;;;;11.63;3.50;;;;;;;4.73;80.46;100776.00;5053668;28;20198;-78
2022/02/02 08:51:31;;;;;;;13.70;3.20;;;;;;;4.71;80.70;100776.00;5053119;28;20221;-79
2022/02/02 08:54:10;;;;;;;18.40;3.47;;;;;;;4.67;80.22;100769.06;5054434;28;20219;-79
2022/02/02 08:59:21;;;;;;;15.67;4.03;;;;;;;4.71;81.05;100777.72;5049736;28;20198;-79
2022/02/02 09:01:50;;;;;;;10.47;2.67;;;;;;;4.80;81.28;100783.00;5051897;28;20201;-77
2022/02/02 09:07:00;;;;;;;12.07;3.77;;;;;;;4.71;81.73;100773.41;5051915;28;20209;-79
2022/02/02 09:09:44;;;;;;;12.00;3.20;;;;;;;4.71;80.84;100791.50;5053777;28;20210;-80
2022/02/02 09:20:50;;;;;;;12.40;3.40;;;;;;;4.74;80.76;100801.03;5051612;28;20298;-79
2022/02/02 09:23:27;;;;;;;12.30;3.83;;;;;;;4.83;81.45;100806.28;5052921;28;20199;-78
2022/02/02 09:26:14;;;;;;;13.70;2.90;;;;;;;4.80;81.12;100795.03;5054007;28;20250;-78
2022/02/02 09:31:32;;;;;;;15.40;3.27;;;;;;;4.82;80.72;100801.13;5051240;28;20727;-79
2022/02/02 09:34:02;;;;;;;9.83;2.90;;;;;;;4.94;80.54;100824.53;5052521;28;20286;-79
2022/02/02 09:36:30;;;;;;;12.93;2.63;;;;;;;5.00;80.51;100821.13;5051448;28;20197;-78
2022/02/02 09:39:00;;;;;;;15.37;2.97;;;;;;;5.01;80.24;100831.47;5051747;28;20209;-79
2022/02/02 09:41:42;;;;;;;14.83;3.13;;;;;;;5.03;80.38;100841.84;5051805;28;20293;-79
2022/02/02 09:44:11;;;;;;;10.53;2.73;;;;;;;4.98;80.98;100852.16;5051734;28;20673;-78
2022/02/02 09:46:49;;;;;;;10.43;3.77;;;;;;;4.92;81.23;100836.56;5052665;28;20585;-79
2022/02/02 09:49:23;;;;;;;14.77;3.30;;;;;;;4.87;80.76;100848.56;5048680;28;20199;-78
2022/02/02 09:51:55;;;;;;;24.50;3.50;;;;;;;4.99;79.91;100848.69;5051469;28;20200;-77
2022/02/02 09:54:26;;;;;;;14.50;3.67;;;;;;;4.95;80.67;100854.69;5051404;28;20228;-77
2022/02/02 10:03:01;;;;;;;10.07;2.67;;;;;;;5.12;77.54;100919.56;5046831;28;20205;-79
2022/02/02 10:05:31;;;;;;;13.40;2.53;;;;;;;5.18;78.60;100925.66;5052013;28;20283;-78
2022/02/02 10:08:25;;;;;;;7.10;2.13;;;;;;;5.14;78.15;100930.81;5051165;28;20290;-77
2022/02/02 10:11:03;;;;;;;10.27;2.70;;;;;;;5.17;78.69;100934.31;5050498;28;20235;-78
2022/02/02 10:14:14;;;;;;;10.43;2.83;;;;;;;5.34;78.18;100943.97;5051218;28;20277;-78
2022/02/02 10:16:45;;;;;;;12.00;2.73;;;;;;;5.44;77.49;100961.31;5049467;28;20281;-78
2022/02/02 10:19:18;;;;;;;9.40;2.60;;;;;;;5.38;76.75;100982.81;5051501;28;20202;-78
2022/02/02 10:21:44;;;;;;;12.07;2.97;;;;;;;5.47;76.30;100991.53;5051484;28;20194;-78
2022/02/02 10:24:11;;;;;;;13.57;3.13;;;;;;;5.51;74.95;101033.03;5051606;28;20222;-78
2022/02/02 10:26:44;;;;;;;11.73;3.10;;;;;;;5.39;75.77;101027.69;5050759;28;20795;-78
2022/02/02 10:29:11;;;;;;;15.27;3.07;;;;;;;5.40;75.69;101049.31;5051160;28;20192;-78
2022/02/02 10:31:39;;;;;;;13.13;2.67;;;;;;;5.38;75.80;101049.28;5050726;28;20200;-79
2022/02/02 10:34:10;;;;;;;10.77;3.93;;;;;;;5.37;76.33;101044.94;5053000;28;20704;-78
2022/02/02 10:36:38;;;;;;;12.33;2.93;;;;;;;5.34;76.12;101039.75;5048063;28;20194;-78
2022/02/02 10:39:09;;;;;;;10.77;2.40;;;;;;;5.42;76.40;101039.84;5052862;28;20674;-78
2022/02/02 10:41:46;;;;;;;10.13;3.17;;;;;;;5.46;76.08;101044.19;5052654;28;20209;-78
2022/02/02 10:44:20;;;;;;;7.90;2.03;;;;;;;5.46;75.91;101059.72;5055314;28;20219;-78
2022/02/02 10:46:55;;;;;;;9.30;2.80;;;;;;;5.44;75.46;101075.22;5052191;28;20206;-77
2022/02/02 10:49:27;;;;;;;11.70;2.27;;;;;;;5.54;75.80;101084.00;5052578;28;20550;-78
2022/02/02 10:52:01;;;;;;;9.50;2.10;;;;;;;5.44;74.92;101115.81;5051838;28;20251;-77
2022/02/02 10:54:34;;;;;;;8.73;1.87;;;;;;;5.56;75.39;101098.69;5054420;28;20225;-77
2022/02/02 10:57:09;;;;;;;14.53;3.47;;;;;;;5.56;76.01;101090.06;5052928;28;20212;-78
2022/02/02 11:08:00;;;;;;;14.53;2.27;;;;;;;5.49;74.37;101115.00;5054702;28;20371;-78
2022/02/02 11:10:29;;;;;;;8.43;2.23;;;;;;;5.53;75.31;101118.47;5053843;28;20670;-77
2022/02/02 11:12:58;;;;;;;9.07;2.50;;;;;;;5.44;74.93;101121.84;5054539;28;20649;-78
2022/02/02 11:15:31;;;;;;;15.20;2.33;;;;;;;5.43;73.85;101155.47;5054106;28;20219;-77
2022/02/02 11:18:07;;;;;;;8.00;2.40;;;;;;;5.25;78.50;101079.31;5054448;28;20219;-78
2022/02/02 11:20:33;;;;;;;10.63;2.33;;;;;;;5.19;81.15;101014.53;5053706;28;20218;-78
2022/02/02 11:23:01;;;;;;;16.37;2.93;;;;;;;5.24;80.39;101005.09;5054362;28;20263;-78
2022/02/02 11:25:36;;;;;;;13.50;3.47;;;;;;;5.16;81.28;100991.22;5053623;28;20287;-78
2022/02/02 11:28:21;;;;;;;13.77;2.30;;;;;;;5.20;80.29;100987.81;5054646;28;20202;-78
2022/02/02 11:30:49;;;;;;;11.73;2.37;;;;;;;5.26;78.53;101044.81;5053623;28;20217;-77
2022/02/02 11:33:23;;;;;;;9.07;2.10;;;;;;;5.36;77.31;101082.91;5054041;28;20740;-77
2022/02/02 11:35:52;;;;;;;8.40;2.37;;;;;;;5.45;76.70;101110.66;5056598;28;20229;-78
2022/02/02 11:38:40;;;;;;;8.40;1.77;;;;;;;5.55;74.29;101163.44;5053774;28;20205;-79
2022/02/02 11:41:25;;;;;;;8.40;1.40;;;;;;;5.67;75.14;101153.22;5053007;28;20201;-79
2022/02/02 11:43:57;;;;;;;10.07;2.23;;;;;;;5.65;75.84;101173.06;5053927;28;20221;-77
2022/02/02 11:46:49;;;;;;;8.40;2.33;;;;;;;5.68;75.86;101159.25;5053381;28;20259;-78
2022/02/02 11:49:19;;;;;;;5.53;1.87;;;;;;;5.52;76.78;101147.84;5056327;28;20321;-78
2022/02/02 11:51:46;;;;;;;8.57;1.83;;;;;;;5.61;77.33;101124.66;5058868;28;20222;-76
2022/02/02 11:54:15;;;;;;;6.53;1.47;;;;;;;5.65;76.83;101143.66;5060125;28;20310;-78
2022/02/02 11:57:15;;;;;;;4.37;1.80;;;;;;;5.58;76.52;101151.38;5059171;28;20202;-78
2022/02/02 11:59:51;;;;;;;7.87;2.07;;;;;;;5.51;76.66;101157.34;5053231;28;20747;-78
2022/02/02 12:02:23;;;;;;;8.97;1.70;;;;;;;5.49;76.54;101165.91;5052387;28;20208;-78
2022/02/02 12:05:00;;;;;;;11.90;1.70;;;;;;;5.44;77.08;101155.50;5052304;28;20262;-78
2022/02/02 12:08:02;;;;;;;6.37;1.47;;;;;;;5.61;77.02;101160.03;5053886;28;20189;-78
2022/02/02 12:10:59;;;;;;;11.00;1.77;;;;;;;5.69;75.77;101181.72;5052591;28;20202;-78
2022/02/02 12:36:03;;;;;;;9.13;1.50;;;;;;;6.15;69.61;101407.84;5033658;28;20206;-79
2022/02/02 12:47:14;;;;;;;9.50;1.53;;;;;;;6.78;65.86;101473.56;5033435;28;20273;-78
2022/02/02 12:50:03;;;;;;;9.00;1.80;;;;;;;6.88;65.86;101496.19;5033665;28;20290;-79
2022/02/02 12:58:28;;;;;;;5.00;1.47;;;;;;;7.80;63.59;101573.47;5089827;27;20548;-79
2022/02/02 13:01:09;;;;;;;4.83;1.37;;;;;;;8.03;62.42;101625.72;5089618;28;20210;-79
2022/02/02 13:03:37;;;;;;;6.80;1.43;;;;;;;7.88;60.47;101675.78;5089183;28;20215;-77
2022/02/02 13:06:04;;;;;;;6.23;1.53;;;;;;;7.29;61.71;101659.41;5086152;28;20202;-78
2022/02/02 13:08:31;;;;;;;5.93;1.67;;;;;;;7.19;63.35;101623.78;5089251;28;20735;-77
2022/02/02 13:10:58;;;;;;;4.80;1.30;;;;;;;7.10;64.51;101566.56;5089838;28;20248;-78
2022/02/02 13:13:28;;;;;;;4.70;1.40;;;;;;;7.14;64.35;101539.78;5089465;28;20263;-78
2022/02/02 13:16:08;;;;;;;7.83;2.30;;;;;;;7.06;65.50;101525.84;5089913;28;20300;-78
2022/02/02 13:18:38;;;;;;;7.70;1.60;;;;;;;7.18;66.66;101486.19;5089584;28;20292;-79
2022/02/02 13:21:10;;;;;;;5.67;1.60;;;;;;;6.91;66.37;101487.56;5089894;28;20212;-79
2022/02/02 13:23:47;;;;;;;4.03;1.60;;;;;;;6.97;66.86;101462.53;5090347;28;20289;-79
2022/02/02 13:26:25;;;;;;;8.70;2.17;;;;;;;7.06;67.03;101469.59;5089828;28;20698;-78
2022/02/02 13:29:01;;;;;;;6.93;2.07;;;;;;;7.14;68.02;101447.19;5090300;28;20300;-78
2022/02/02 13:31:46;;;;;;;6.20;1.67;;;;;;;6.92;68.47;101412.31;5089337;28;20553;-78
2022/02/02 13:34:21;;;;;;;5.67;1.33;;;;;;;6.75;68.63;101413.81;5071814;22;20238;-78
2022/02/02 13:37:01;;;;;;;7.20;1.50;;;;;;;6.61;69.17;101410.19;5031159;28;20651;-78
2022/02/02 13:42:45;;;;;;;4.33;1.00;;;;;;;6.30;67.08;101479.78;5031433;28;20205;-77
2022/02/02 13:45:45;;;;;;;4.37;0.90;;;;;;;6.07;66.65;101485.47;5011261;28;20213;-77
2022/02/02 13:51:08;;;;;;;4.77;1.30;;;;;;;5.89;68.18;101474.78;5007947;28;20207;-78
2022/02/02 13:57:02;;;;;;;3.17;1.07;;;;;;;5.86;68.00;101475.56;5008711;28;20295;-77
2022/02/02 14:05:17;;;;;;;6.27;1.20;;;;;;;6.05;63.96;101609.00;4980350;28;20239;-78
2022/02/02 14:07:52;;;;;;;4.63;1.00;;;;;;;6.08;61.90;101666.06;5007859;28;20269;-78
2022/02/02 14:10:35;;;;;;;4.03;1.00;;;;;;;6.00;63.21;101652.06;4995989;28;20273;-78
2022/02/02 14:32:12;;;;;;;5.37;0.90;;;;;;;5.51;67.88;101537.09;4986182;28;20684;-77
2022/02/02 14:34:42;;;;;;;3.57;1.03;;;;;;;5.54;67.17;101519.03;4986767;28;20237;-78
2022/02/02 14:37:15;;;;;;;2.83;0.67;;;;;;;5.56;66.90;101528.56;4987845;28;20278;-78
2022/02/02 14:39:51;;;;;;;3.27;0.70;;;;;;;5.63;65.36;101602.09;4986007;28;20201;-78
2022/02/02 14:42:22;;;;;;;5.33;1.03;;;;;;;5.68;64.02;101634.13;4986285;28;20691;-78
2022/02/02 14:44:49;;;;;;;2.43;0.97;;;;;;;5.66;62.96;101694.53;4986369;28;20719;-78
2022/02/02 14:47:20;;;;;;;3.70;0.77;;;;;;;5.69;64.25;101673.84;4986982;28;20200;-77
2022/02/02 14:49:55;;;;;;;4.80;1.20;;;;;;;5.62;63.62;101669.41;4984015;28;20292;-78
2022/02/02 14:52:31;;;;;;;5.93;1.50;;;;;;;5.55;63.98;101669.28;4984914;28;20209;-77
2022/02/02 14:55:39;;;;;;;4.83;0.90;;;;;;;5.42;64.05;101661.22;4988746;28;20225;-78
2022/02/02 15:09:29;;;;;;;3.67;0.80;;;;;;;5.52;67.36;101621.72;4956331;28;20204;-78
2022/02/02 15:26:32;;;;;;;5.27;1.30;;;;;;;5.23;69.37;101580.53;4986384;28;20202;-77
2022/02/02 15:28:46;;;;;;;7.57;1.37;;;;;;;5.19;70.11;101552.84;4983517;28;20210;-77
2022/02/02 15:31:13;;;;;;;6.07;1.07;;;;;;;4.93;71.08;101527.28;4981891;28;20284;-77
2022/02/02 15:33:39;;;;;;;4.27;1.17;;;;;;;4.87;71.40;101515.94;4983154;28;20314;-77
2022/02/02 15:36:32;;;;;;;7.00;1.60;;;;;;;4.75;72.72;101488.09;4982532;28;20706;-77
2022/02/02 15:39:06;;;;;;;6.67;1.60;;;;;;;4.77;72.83;101489.00;4981504;28;20200;-77
2022/02/02 15:41:40;;;;;;;5.40;1.57;;;;;;;4.78;73.00;101468.34;4983593;28;20697;-77
2022/02/02 15:55:22;;;;;;;4.53;1.93;;;;;;;4.63;77.33;101399.91;4995752;28;20214;-77
2022/02/02 16:01:21;;;;;;;9.53;1.57;;;;;;;4.63;78.59;101368.88;4975751;28;20592;-77
2022/02/02 16:03:37;;;;;;;6.33;1.67;;;;;;;4.61;79.10;101344.69;4992717;28;20239;-77
2022/02/02 16:06:10;;;;;;;5.50;1.83;;;;;;;4.49;79.76;101332.41;4992573;28;20214;-77
2022/02/02 16:08:39;;;;;;;4.90;1.73;;;;;;;4.48;79.08;101330.63;4993052;28;20232;-77
2022/02/02 16:11:16;;;;;;;4.63;1.27;;;;;;;4.44;78.88;101336.59;4992136;28;20299;-77
2022/02/02 16:13:46;;;;;;;5.73;1.53;;;;;;;4.32;79.60;101335.50;4992800;28;20234;-76
2022/02/02 16:16:38;;;;;;;7.20;1.60;;;;;;;4.34;79.81;101328.66;4992518;28;20302;-76
2022/02/02 16:19:03;;;;;;;4.83;1.30;;;;;;;4.21;80.46;101326.66;4992364;28;20208;-76
2022/02/02 16:38:03;;;;;;;12.20;2.07;;;;;;;3.47;86.03;101190.78;4990752;28;20277;-76
2022/02/02 16:40:33;;;;;;;4.93;1.77;;;;;;;3.44;86.46;101179.50;4992061;28;20239;-76
2022/02/02 16:43:13;;;;;;;7.63;1.63;;;;;;;3.36;87.33;101148.38;4992199;28;20231;-77
2022/02/02 16:45:41;;;;;;;4.93;1.57;;;;;;;3.34;87.75;101124.25;4992259;28;20265;-77
2022/02/02 16:48:09;;;;;;;11.03;2.10;;;;;;;3.28;88.68;101112.06;4992209;28;20324;-76
2022/02/02 16:50:38;;;;;;;7.67;2.70;;;;;;;3.20;89.74;101092.13;4992105;28;20211;-76
2022/02/02 16:53:09;;;;;;;7.53;1.87;;;;;;;3.13;90.44;101065.28;4994279;28;20238;-76
2022/02/02 16:55:42;;;;;;;9.63;2.20;;;;;;;3.13;90.61;101055.88;4992149;28;20196;-77
2022/02/02 17:24:11;;;;;;;7.83;2.27;;;;;;;3.12;90.62;101053.25;4991956;28;20215;-77
2022/02/02 17:31:13;;;;;;;8.00;1.93;;;;;;;2.95;91.43;101065.78;4991658;28;20281;-76
2022/02/02 17:33:45;;;;;;;10.60;2.50;;;;;;;2.99;91.14;101075.31;4991392;28;20239;-77